createdAt,value
2017-11-29T00:00:08.491Z,18.05
2017-11-29T00:02:37.877Z,18.17
2017-11-29T00:05:06.201Z,16.92
2017-11-29T00:07:34.565Z,17.70
2017-11-29T00:10:02.945Z,18.20
2017-11-29T00:12:31.315Z,15.48
2017-11-29T00:15:00.447Z,18.62
2017-11-29T00:17:28.791Z,16.17
2017-11-29T00:19:57.222Z,17.80
2017-11-29T00:22:25.544Z,17.50
2017-11-29T00:24:54.418Z,16.25
2017-11-29T00:27:23.501Z,18.05
2017-11-29T00:29:52.164Z,16.27
2017-11-29T00:32:20.538Z,16.83
2017-11-29T00:34:48.891Z,17.62
2017-11-29T00:37:17.223Z,20.10
2017-11-29T00:39:45.599Z,17.70
2017-11-29T00:42:13.978Z,17.75
2017-11-29T00:44:43.029Z,19.60
2017-11-29T00:47:11.791Z,18.80
2017-11-29T00:49:41.266Z,17.30
2017-11-29T00:52:09.662Z,18.27
2017-11-29T00:54:38.790Z,18.30
2017-11-29T00:57:07.116Z,17.83
2017-11-29T00:59:35.432Z,18.75
2017-11-29T01:02:03.800Z,20.40
2017-11-29T01:04:32.905Z,18.23
2017-11-29T01:07:01.252Z,19.20
2017-11-29T01:09:29.647Z,18.73
2017-11-29T01:11:57.975Z,20.33
2017-11-29T01:14:26.319Z,21.15
2017-11-29T01:16:54.657Z,19.62
2017-11-29T01:19:23.014Z,19.35
2017-11-29T01:21:51.386Z,21.40
2017-11-29T01:24:19.751Z,19.17
2017-11-29T01:26:48.071Z,19.12
2017-11-29T01:29:16.415Z,20.02
2017-11-29T01:31:44.859Z,20.48
2017-11-29T01:34:13.218Z,20.70
2017-11-29T01:36:41.541Z,19.98
2017-11-29T01:39:09.929Z,20.88
2017-11-29T01:41:38.278Z,21.58
2017-11-29T01:44:07.390Z,22.00
2017-11-29T01:46:35.748Z,21.00
2017-11-29T01:49:04.841Z,22.50
2017-11-29T01:51:33.199Z,19.73
2017-11-29T01:54:01.746Z,21.30
2017-11-29T01:56:30.077Z,20.25
2017-11-29T01:58:58.385Z,20.58
2017-11-29T02:01:26.731Z,20.58
2017-11-29T02:03:55.049Z,20.83
2017-11-29T02:06:28.036Z,20.42
2017-11-29T02:08:56.745Z,20.60
2017-11-29T02:11:25.065Z,22.65
2017-11-29T02:13:54.373Z,20.20
2017-11-29T02:16:22.717Z,20.58
2017-11-29T02:18:51.062Z,21.52
2017-11-29T02:21:19.439Z,21.35
2017-11-29T02:23:47.769Z,22.40
2017-11-29T02:26:16.810Z,22.70
2017-11-29T02:28:45.180Z,23.42
2017-11-29T02:31:14.280Z,22.08
2017-11-29T02:33:42.629Z,24.08
2017-11-29T02:36:11.852Z,23.62
2017-11-29T02:38:40.948Z,22.62
2017-11-29T02:41:26.977Z,23.60
2017-11-29T02:43:55.321Z,23.15
2017-11-29T02:46:23.673Z,23.70
2017-11-29T02:48:52.009Z,23.80
2017-11-29T02:51:21.128Z,26.58
2017-11-29T02:53:49.484Z,25.12
2017-11-29T02:56:17.917Z,24.85
2017-11-29T02:58:46.257Z,23.25
2017-11-29T03:01:14.583Z,24.65
2017-11-29T03:03:43.186Z,22.75
2017-11-29T03:06:12.422Z,23.62
2017-11-29T03:08:41.673Z,22.62
2017-11-29T03:11:10.025Z,24.23
2017-11-29T03:13:38.369Z,25.35
2017-11-29T03:16:06.715Z,25.10
2017-11-29T03:18:35.603Z,24.90
2017-11-29T03:21:04.632Z,24.75
2017-11-29T03:23:32.976Z,25.40
2017-11-29T03:26:01.646Z,25.88
2017-11-29T03:28:30.758Z,23.52
2017-11-29T03:30:59.883Z,25.20
2017-11-29T03:33:28.277Z,23.98
2017-11-29T03:35:56.614Z,24.95
2017-11-29T03:38:25.335Z,25.17
2017-11-29T03:40:53.868Z,26.83
2017-11-29T03:43:22.942Z,23.98
2017-11-29T03:45:51.298Z,25.40
2017-11-29T03:48:19.663Z,27.08
2017-11-29T03:50:48.008Z,25.92
2017-11-29T03:53:17.108Z,26.62
2017-11-29T03:55:45.537Z,24.55
2017-11-29T03:58:15.466Z,25.55
2017-11-29T04:00:43.783Z,24.25
2017-11-29T04:03:12.204Z,22.52
2017-11-29T04:05:41.289Z,26.70
2017-11-29T04:08:09.601Z,24.90
2017-11-29T04:10:37.958Z,24.77
2017-11-29T04:13:06.259Z,23.92
2017-11-29T04:15:34.606Z,23.98
2017-11-29T04:18:02.943Z,24.23
2017-11-29T04:20:32.072Z,22.90
2017-11-29T04:23:00.387Z,23.40
2017-11-29T04:25:29.077Z,23.30
2017-11-29T04:27:57.465Z,22.27
2017-11-29T04:30:26.547Z,23.30
2017-11-29T04:32:54.895Z,23.35
2017-11-29T04:35:23.195Z,23.42
2017-11-29T04:37:51.502Z,24.17
2017-11-29T04:40:19.870Z,23.50
2017-11-29T04:42:48.228Z,24.70
2017-11-29T04:45:16.575Z,23.80
2017-11-29T04:47:44.970Z,22.70
2017-11-29T04:50:13.363Z,23.87
2017-11-29T04:52:41.670Z,22.90
2017-11-29T04:55:10.016Z,22.77
2017-11-29T04:57:38.345Z,22.90
2017-11-29T05:00:07.462Z,24.12
2017-11-29T05:02:35.792Z,24.20
2017-11-29T05:05:04.142Z,25.73
2017-11-29T05:07:32.472Z,24.48
2017-11-29T05:10:01.762Z,24.70
2017-11-29T05:12:30.131Z,26.20
2017-11-29T05:14:58.469Z,25.50
2017-11-29T05:17:26.877Z,26.35
2017-11-29T05:19:55.209Z,24.40
2017-11-29T05:22:23.525Z,25.77
2017-11-29T05:24:51.866Z,26.60
2017-11-29T05:27:20.213Z,25.70
2017-11-29T05:29:49.343Z,27.75
2017-11-29T05:32:17.769Z,25.85
2017-11-29T05:34:46.144Z,28.00
2017-11-29T05:37:14.486Z,26.83
2017-11-29T05:39:42.838Z,28.25
2017-11-29T05:42:11.944Z,27.15
2017-11-29T05:44:41.055Z,30.30
2017-11-29T05:47:09.425Z,28.30
2017-11-29T05:49:38.502Z,28.40
2017-11-29T05:52:07.617Z,27.62
2017-11-29T05:54:36.063Z,26.90
2017-11-29T05:57:04.401Z,29.02
2017-11-29T05:59:32.731Z,28.70
2017-11-29T06:02:01.857Z,28.17
2017-11-29T06:04:30.211Z,29.10
2017-11-29T06:06:59.305Z,29.52
2017-11-29T06:09:28.429Z,29.20
2017-11-29T06:11:56.745Z,30.92
2017-11-29T06:14:25.093Z,29.37
2017-11-29T06:16:53.632Z,30.90
2017-11-29T06:19:21.952Z,29.77
2017-11-29T06:21:50.257Z,29.40
2017-11-29T06:24:18.588Z,30.02
2017-11-29T06:26:48.307Z,27.48
2017-11-29T06:29:16.658Z,30.55
2017-11-29T06:31:45.056Z,27.75
2017-11-29T06:34:15.055Z,27.75
2017-11-29T06:36:43.375Z,28.20
2017-11-29T06:39:12.050Z,28.20
2017-11-29T06:41:40.404Z,28.73
2017-11-29T06:44:09.529Z,28.23
2017-11-29T06:46:37.873Z,27.85
2017-11-29T06:49:06.195Z,25.75
2017-11-29T06:51:34.521Z,27.23
2017-11-29T06:54:03.652Z,27.20
2017-11-29T06:56:31.956Z,27.15
2017-11-29T06:59:01.057Z,26.45
2017-11-29T07:01:29.779Z,28.15
2017-11-29T07:03:58.129Z,26.35
2017-11-29T07:06:26.469Z,27.33
2017-11-29T07:08:54.858Z,25.67
2017-11-29T07:11:23.198Z,26.50
2017-11-29T07:13:51.564Z,26.15
2017-11-29T07:16:19.913Z,25.95
2017-11-29T07:18:48.262Z,27.77
2017-11-29T07:21:17.365Z,26.27
2017-11-29T07:23:45.808Z,24.55
2017-11-29T07:26:14.138Z,24.73
2017-11-29T07:28:42.460Z,26.62
2017-11-29T07:31:10.833Z,24.90
2017-11-29T07:33:39.370Z,27.87
2017-11-29T07:36:07.689Z,25.35
2017-11-29T07:38:36.041Z,26.30
2017-11-29T07:41:04.400Z,28.27
2017-11-29T07:43:32.763Z,26.90
2017-11-29T07:46:01.457Z,28.27
2017-11-29T07:48:29.834Z,26.90
2017-11-29T07:50:58.183Z,26.80
2017-11-29T07:53:26.545Z,26.35
2017-11-29T07:55:55.646Z,25.75
2017-11-29T07:58:24.010Z,26.48
2017-11-29T08:00:52.409Z,27.02
2017-11-29T08:03:20.884Z,27.70
2017-11-29T08:05:50.090Z,26.05
2017-11-29T08:08:18.809Z,28.08
2017-11-29T08:10:47.144Z,27.73
2017-11-29T08:13:15.481Z,28.02
2017-11-29T08:15:44.401Z,27.13
2017-11-29T08:18:13.092Z,25.50
2017-11-29T08:20:41.412Z,26.87
2017-11-29T08:23:09.764Z,28.08
2017-11-29T08:25:39.001Z,26.58
2017-11-29T08:28:07.341Z,26.95
2017-11-29T08:30:36.517Z,27.30
2017-11-29T08:33:04.882Z,28.50
2017-11-29T08:35:33.228Z,28.42
2017-11-29T08:38:02.396Z,28.98
2017-11-29T08:40:30.775Z,27.85
2017-11-29T08:42:59.153Z,28.95
2017-11-29T08:45:28.399Z,26.20
2017-11-29T08:47:57.481Z,25.90
2017-11-29T08:50:27.443Z,26.52
2017-11-29T08:52:56.200Z,25.98
2017-11-29T08:55:24.518Z,25.30
2017-11-29T08:57:52.834Z,28.42
2017-11-29T09:00:21.930Z,25.50
2017-11-29T09:02:51.034Z,27.20
2017-11-29T09:05:20.151Z,26.15
2017-11-29T09:07:48.529Z,28.02
2017-11-29T09:10:16.905Z,28.30
2017-11-29T09:12:45.238Z,29.63
2017-11-29T09:15:14.223Z,27.75
2017-11-29T09:17:42.549Z,27.30
2017-11-29T09:20:10.876Z,29.10
2017-11-29T09:22:39.241Z,28.60
2017-11-29T09:25:08.052Z,27.83
2017-11-29T09:27:36.362Z,29.05
2017-11-29T09:30:05.530Z,27.25
2017-11-29T09:32:33.863Z,26.52
2017-11-29T09:35:02.205Z,26.55
2017-11-29T09:37:30.744Z,28.15
2017-11-29T09:39:59.719Z,26.75
2017-11-29T09:42:28.067Z,24.98
2017-11-29T09:44:56.452Z,27.20
2017-11-29T09:47:25.544Z,26.55
2017-11-29T09:49:54.650Z,26.00
2017-11-29T09:52:23.768Z,25.33
2017-11-29T09:54:52.103Z,28.62
2017-11-29T09:57:20.456Z,26.50
2017-11-29T09:59:49.167Z,25.35
2017-11-29T10:02:17.548Z,25.92
2017-11-29T10:04:46.067Z,25.10
2017-11-29T10:07:14.463Z,23.95
2017-11-29T10:09:42.816Z,24.60
2017-11-29T10:12:12.167Z,24.70
2017-11-29T10:14:40.817Z,24.02
2017-11-29T10:17:09.224Z,24.65
2017-11-29T10:19:37.616Z,26.37
2017-11-29T10:22:06.287Z,25.23
2017-11-29T10:24:34.661Z,25.00
2017-11-29T10:27:03.045Z,26.50
2017-11-29T10:29:31.378Z,25.35
2017-11-29T10:32:00.525Z,24.85
2017-11-29T10:34:28.861Z,23.90
2017-11-29T10:36:57.244Z,25.42
2017-11-29T10:39:25.577Z,21.40
2017-11-29T10:41:53.941Z,22.85
2017-11-29T10:44:22.350Z,22.48
2017-11-29T10:46:50.730Z,22.75
2017-11-29T10:49:19.074Z,22.62
2017-11-29T10:51:47.623Z,21.90
2017-11-29T10:54:16.091Z,21.00
2017-11-29T10:56:45.207Z,21.60
2017-11-29T10:59:13.566Z,22.73
2017-11-29T11:01:42.677Z,20.58
2017-11-29T11:04:11.027Z,22.13
2017-11-29T11:06:39.738Z,20.10
2017-11-29T11:09:08.102Z,21.00
2017-11-29T11:11:37.205Z,22.52
2017-11-29T11:14:06.308Z,19.92
2017-11-29T11:16:35.404Z,20.98
2017-11-29T11:19:04.505Z,20.25
2017-11-29T11:21:33.628Z,17.70
2017-11-29T11:24:01.977Z,18.73
2017-11-29T11:26:30.381Z,17.67
2017-11-29T11:28:59.003Z,18.80
2017-11-29T11:31:27.328Z,18.80
2017-11-29T11:33:55.719Z,20.30
2017-11-29T11:36:24.107Z,18.65
2017-11-29T11:38:53.480Z,17.95
2017-11-29T11:41:21.853Z,19.23
2017-11-29T11:43:51.046Z,17.70
2017-11-29T11:46:20.189Z,18.87
2017-11-29T11:48:48.503Z,17.50
2017-11-29T11:51:17.330Z,15.43
2017-11-29T11:53:45.680Z,17.10
2017-11-29T11:56:14.017Z,17.20
2017-11-29T11:58:42.374Z,17.48
2017-11-29T12:01:10.857Z,16.52
2017-11-29T12:03:39.234Z,15.40
2017-11-29T12:06:07.924Z,16.20
2017-11-29T12:08:36.305Z,17.10
2017-11-29T12:11:04.640Z,17.15
2017-11-29T12:13:34.058Z,22.10
2017-11-29T12:16:02.406Z,16.93
2017-11-29T12:18:30.726Z,17.53
2017-11-29T12:20:59.080Z,16.35
2017-11-29T12:23:27.412Z,15.87
2017-11-29T12:25:55.735Z,16.43
2017-11-29T12:28:24.097Z,15.80
2017-11-29T12:30:52.429Z,15.10
2017-11-29T12:33:20.766Z,16.33
2017-11-29T12:35:50.030Z,14.50
2017-11-29T12:38:18.387Z,16.67
2017-11-29T12:40:46.779Z,16.73
2017-11-29T12:43:15.167Z,14.65
2017-11-29T12:45:43.515Z,16.58
2017-11-29T12:48:29.421Z,15.23
2017-11-29T12:51:18.323Z,14.52
2017-11-29T12:53:46.900Z,15.63
2017-11-29T12:56:15.237Z,15.55
2017-11-29T12:58:43.620Z,14.95
2017-11-29T13:01:11.984Z,14.20
2017-11-29T13:03:40.376Z,14.18
2017-11-29T13:06:08.709Z,14.23
2017-11-29T13:08:37.104Z,14.10
2017-11-29T13:11:06.238Z,14.93
2017-11-29T13:13:35.674Z,13.40
2017-11-29T13:16:04.472Z,14.77
2017-11-29T13:18:33.018Z,14.10
2017-11-29T13:21:01.434Z,12.65
2017-11-29T13:23:29.939Z,12.20
2017-11-29T13:25:58.286Z,13.60
2017-11-29T13:28:26.597Z,13.60
2017-11-29T13:30:55.258Z,13.60
2017-11-29T13:33:23.632Z,14.05
2017-11-29T13:35:51.952Z,13.40
2017-11-29T13:38:21.055Z,16.15
2017-11-29T13:40:49.496Z,17.27
2017-11-29T13:43:17.912Z,17.35
2017-11-29T13:45:46.254Z,16.50
2017-11-29T13:48:14.578Z,15.02
2017-11-29T13:50:42.908Z,17.25
2017-11-29T13:53:11.285Z,15.07
2017-11-29T13:55:39.661Z,14.80
2017-11-29T13:58:08.021Z,15.20
2017-11-29T14:00:36.543Z,14.43
2017-11-29T14:03:05.633Z,12.15
2017-11-29T14:05:33.984Z,14.18
2017-11-29T14:08:02.366Z,14.95
2017-11-29T14:10:30.693Z,15.05
2017-11-29T14:12:59.785Z,15.30
2017-11-29T14:15:28.884Z,13.35
2017-11-29T14:17:57.262Z,14.20
2017-11-29T14:20:25.627Z,14.77
2017-11-29T14:22:54.904Z,13.18
2017-11-29T14:25:23.201Z,14.25
2017-11-29T14:27:51.608Z,15.25
2017-11-29T14:30:20.028Z,13.80
2017-11-29T14:32:49.126Z,14.73
2017-11-29T14:35:17.612Z,14.00
2017-11-29T14:37:45.997Z,14.35
2017-11-29T14:40:14.382Z,15.65
2017-11-29T18:33:38.646Z,24.00
2017-11-29T18:36:07.100Z,22.65
2017-11-29T18:38:36.211Z,23.90
2017-11-29T18:41:04.569Z,23.05
2017-11-29T18:43:33.650Z,22.90
2017-11-29T18:46:02.103Z,24.37
2017-11-29T18:48:31.467Z,23.45
2017-11-29T18:50:59.929Z,24.23
2017-11-29T18:53:29.072Z,23.80
2017-11-29T18:55:57.602Z,24.40
2017-11-29T18:58:26.707Z,23.95
2017-11-29T19:00:55.027Z,24.05
2017-11-29T19:03:23.403Z,25.25
2017-11-29T19:05:51.756Z,25.35
2017-11-29T19:08:20.133Z,25.40
2017-11-29T19:10:48.498Z,24.90
2017-11-29T19:13:16.814Z,24.55
2017-11-29T19:15:45.150Z,22.58
2017-11-29T19:18:14.414Z,26.92
2017-11-29T19:20:42.804Z,25.25
2017-11-29T19:23:11.167Z,27.60
2017-11-29T19:25:39.537Z,25.65
2017-11-29T19:28:07.878Z,27.00
2017-11-29T19:30:37.119Z,28.25
2017-11-29T19:33:05.545Z,27.52
2017-11-29T19:35:34.671Z,26.40
2017-11-29T19:38:03.086Z,29.25
2017-11-29T19:40:31.557Z,27.50
2017-11-29T19:42:59.953Z,27.23
2017-11-29T19:45:28.372Z,27.67
2017-11-29T19:47:57.488Z,29.70
2017-11-29T19:50:25.847Z,28.87
2017-11-29T19:52:54.223Z,28.27
2017-11-29T19:55:23.343Z,26.17
2017-11-29T19:57:51.705Z,25.55
2017-11-29T20:00:20.093Z,25.00
2017-11-29T20:02:49.306Z,24.85
2017-11-29T20:05:17.695Z,25.52
2017-11-29T20:07:46.037Z,24.20
2017-11-29T20:10:14.407Z,25.45
2017-11-29T20:12:43.503Z,25.42
2017-11-29T20:15:13.460Z,25.73
2017-11-29T20:17:41.819Z,25.75
2017-11-29T20:20:10.228Z,27.15
2017-11-29T20:22:38.602Z,26.30
2017-11-29T20:25:07.328Z,27.85
2017-11-29T20:27:35.648Z,27.10
2017-11-29T20:30:04.745Z,25.75
2017-11-29T20:32:33.228Z,26.87
2017-11-29T20:35:01.591Z,25.62
2017-11-29T20:37:30.679Z,26.60
2017-11-29T20:39:59.063Z,25.48
2017-11-29T20:42:27.402Z,27.10
2017-11-29T20:44:55.737Z,27.48
2017-11-29T20:47:24.264Z,28.10
2017-11-29T20:49:52.610Z,25.77
2017-11-29T20:52:38.763Z,25.88
2017-11-29T20:55:07.151Z,27.48
2017-11-29T20:57:36.254Z,25.33
2017-11-29T21:00:05.445Z,27.05
2017-11-29T21:02:33.763Z,25.35
2017-11-29T21:05:02.120Z,25.70
2017-11-29T21:07:30.543Z,26.77
2017-11-29T21:09:58.894Z,25.45
2017-11-29T21:12:27.237Z,24.40
2017-11-29T21:14:55.634Z,25.23
2017-11-29T21:17:24.738Z,24.30
2017-11-29T21:19:53.157Z,25.45
2017-11-29T21:22:21.525Z,25.50
2017-11-29T21:24:49.946Z,26.77
2017-11-29T21:27:18.434Z,25.75
2017-11-29T21:29:47.039Z,24.52
2017-11-29T21:32:15.386Z,25.23
2017-11-29T21:34:43.727Z,27.90
2017-11-29T21:37:12.112Z,25.23
2017-11-29T21:39:40.483Z,24.37
2017-11-29T21:42:08.835Z,27.80
2017-11-29T21:44:37.173Z,25.23
2017-11-29T21:47:05.485Z,25.80
2017-11-29T21:49:33.869Z,28.98
2017-11-29T21:52:02.524Z,27.17
2017-11-29T21:54:30.887Z,25.73
2017-11-29T21:56:59.253Z,25.02
2017-11-29T21:59:27.602Z,25.70
2017-11-29T22:01:55.942Z,26.00
2017-11-29T22:04:24.254Z,25.90
2017-11-29T22:06:52.592Z,26.87
2017-11-29T22:09:20.912Z,24.70
2017-11-29T22:11:49.232Z,27.65
2017-11-29T22:14:17.913Z,26.90
2017-11-29T22:16:46.219Z,27.20
2017-11-29T22:19:14.533Z,26.15
2017-11-29T22:21:42.903Z,25.98
2017-11-29T22:24:11.242Z,28.35
2017-11-29T22:26:39.572Z,27.30
2017-11-29T22:29:07.948Z,26.60
2017-11-29T22:31:36.294Z,25.60
2017-11-29T22:34:04.619Z,29.08
2017-11-29T22:36:33.377Z,28.05
2017-11-29T22:39:01.701Z,25.50
2017-11-29T22:41:30.035Z,27.95
2017-11-29T22:43:59.167Z,26.42
2017-11-29T22:46:27.502Z,28.73
2017-11-29T22:48:56.587Z,28.70
2017-11-29T22:51:25.066Z,26.90
2017-11-29T22:53:53.395Z,26.20
2017-11-29T22:56:21.758Z,26.25
2017-11-29T22:58:50.192Z,25.77
2017-11-29T23:01:18.549Z,26.23
2017-11-29T23:03:46.907Z,26.23
2017-11-29T23:06:15.273Z,25.95
2017-11-29T23:08:43.628Z,25.05
2017-11-29T23:11:11.933Z,25.30
2017-11-29T23:13:40.265Z,24.50
2017-11-29T23:16:08.905Z,23.77
2017-11-29T23:18:37.246Z,23.60
2017-11-29T23:21:05.701Z,22.87
2017-11-29T23:23:34.017Z,24.15
2017-11-29T23:26:02.377Z,23.45
2017-11-29T23:28:30.730Z,23.38
2017-11-29T23:30:59.075Z,24.25
2017-11-29T23:33:27.389Z,23.85
2017-11-29T23:35:55.792Z,22.85
2017-11-29T23:38:24.108Z,26.55
2017-11-29T23:40:53.210Z,25.42
2017-11-29T23:43:21.784Z,25.73
2017-11-29T23:45:50.121Z,24.73
2017-11-29T23:48:18.477Z,24.37
2017-11-29T23:50:46.827Z,26.35
2017-11-29T23:53:15.164Z,24.50
2017-11-29T23:55:43.476Z,25.40
2017-11-29T23:58:11.856Z,24.75
